Pine Grove, West Virginia
Current Conditions -  °F | °C
As of 4:00 PM on Tuesday 27 Jan 2015 (Local Time) from KCKB Reporting Station
Light Snow Light Snow  
Wind Chill: 13°   Ceiling: 2900
Heat Index: 22°   Visibility: 4mi
Dew Point: 17°   Wind: 8mph
Humidity: 82%   Direction: 280°W
Pressure: 29.98"   Gusts: NA
Location:  39.57°N, 80.68°W
Report Text: KCKB 272100Z 28007KT 4SM -SN FEW020 OVC029 M06/M08 A2998 RMK AO2 P0000 T10561083
Loading
Personal Weather Stations






























Interactive Weather Map New forecast layout! Learn more

10-Day Weather Forecast

Advertisements
Track Severe Weather on mobile